Time;durP1;ratioP1;P1;durP2;ratioP2;P2;SDS_P1;SDS_P2;PMS_P1;PMS_P2;Temp;Humidity;BMP_temperature;BMP_pressure;BME280_temperature;BME280_humidity;BME280_pressure;Samples;Min_cycle;Max_cycle;Signal;HPM_P1;HPM_P2
2021/08/01 00:00:38;;;;;;;3.83;3.28;;;;;;;12.47;100.00;92551.31;2089091;28;20032;-87
2021/08/01 00:01:40;;;;;;;8.43;4.05;;;;;;;12.45;100.00;92547.56;2105705;28;20046;-86
2021/08/01 00:02:40;;;;;;;6.47;3.40;;;;;;;12.50;100.00;92544.31;2106472;28;20107;-86
2021/08/01 00:03:41;;;;;;;4.70;3.65;;;;;;;12.44;100.00;92546.81;2098263;28;20024;-84
2021/08/01 00:04:42;;;;;;;5.35;3.65;;;;;;;12.49;100.00;92548.91;2091549;28;20020;-85
2021/08/01 00:05:45;;;;;;;6.75;3.40;;;;;;;12.39;100.00;92543.97;2105476;28;20020;-84
2021/08/01 00:06:46;;;;;;;4.45;3.70;;;;;;;12.48;100.00;92544.75;2107045;28;20115;-85
2021/08/01 00:07:47;;;;;;;3.90;3.50;;;;;;;12.44;100.00;92540.72;2091977;28;20037;-84
2021/08/01 00:08:48;;;;;;;4.88;3.25;;;;;;;12.47;100.00;92534.47;2090421;28;20027;-86
2021/08/01 00:09:49;;;;;;;5.55;3.17;;;;;;;12.46;100.00;92527.59;2090223;28;20021;-85
2021/08/01 00:10:51;;;;;;;9.00;3.88;;;;;;;12.46;100.00;92536.38;2089981;28;20070;-86
2021/08/01 00:11:52;;;;;;;7.50;3.17;;;;;;;12.39;100.00;92531.31;2099986;28;20448;-86
2021/08/01 00:12:53;;;;;;;5.53;3.30;;;;;;;12.42;100.00;92527.00;2097172;28;20031;-84
2021/08/01 00:13:54;;;;;;;5.53;3.88;;;;;;;12.42;100.00;92524.31;2098689;28;20025;-88
2021/08/01 00:14:55;;;;;;;4.18;3.42;;;;;;;12.42;100.00;92521.63;2112534;28;20069;-87
2021/08/01 00:15:58;;;;;;;8.02;3.75;;;;;;;12.46;100.00;92528.34;2098425;28;20101;-84
2021/08/01 00:17:00;;;;;;;7.55;3.55;;;;;;;12.45;100.00;92526.88;2090942;28;20032;-84
2021/08/01 00:18:02;;;;;;;7.75;3.75;;;;;;;12.46;100.00;92523.00;2098468;28;20033;-84
2021/08/01 00:19:03;;;;;;;5.97;4.22;;;;;;;12.44;100.00;92528.06;2103888;28;20024;-85
2021/08/01 00:20:05;;;;;;;5.15;3.47;;;;;;;12.38;100.00;92524.47;2100815;28;20028;-87
2021/08/01 00:21:06;;;;;;;5.25;3.33;;;;;;;12.34;100.00;92526.53;2089860;28;20032;-84
2021/08/01 00:22:07;;;;;;;5.75;3.22;;;;;;;12.31;100.00;92533.50;2089683;28;20032;-86
2021/08/01 00:23:08;;;;;;;7.30;3.17;;;;;;;12.33;100.00;92530.38;2089965;28;20040;-85
2021/08/01 00:24:09;;;;;;;7.25;3.50;;;;;;;12.32;100.00;92526.97;2113319;28;20027;-84
2021/08/01 00:25:10;;;;;;;7.75;3.58;;;;;;;12.32;100.00;92526.97;2104491;28;20024;-87
2021/08/01 00:26:14;;;;;;;5.40;3.72;;;;;;;12.30;100.00;92531.28;2090007;28;20028;-84
2021/08/01 00:27:15;;;;;;;5.40;3.42;;;;;;;12.32;100.00;92531.56;2090835;28;20021;-85
2021/08/01 00:28:16;;;;;;;4.97;3.05;;;;;;;12.23;100.00;92532.28;2090160;28;20056;-85
2021/08/01 00:29:17;;;;;;;5.13;3.30;;;;;;;12.24;100.00;92535.72;2088254;28;20036;-84
2021/08/01 00:30:17;;;;;;;7.47;3.60;;;;;;;12.22;100.00;92532.72;2099298;28;20027;-85
2021/08/01 00:31:18;;;;;;;4.50;3.40;;;;;;;12.35;100.00;92536.06;2107307;28;20020;-86
2021/08/01 00:32:20;;;;;;;7.20;3.45;;;;;;;12.33;100.00;92531.13;2089593;28;20025;-84
2021/08/01 00:33:21;;;;;;;3.45;3.13;;;;;;;12.29;100.00;92541.25;2089881;28;20597;-87
2021/08/01 00:34:21;;;;;;;7.20;3.65;;;;;;;12.32;100.00;92534.25;2103224;28;20028;-85
2021/08/01 00:35:22;;;;;;;6.28;3.50;;;;;;;12.30;100.00;92532.03;2104420;28;20020;-85
2021/08/01 00:36:23;;;;;;;10.45;3.67;;;;;;;12.31;100.00;92538.88;2097449;28;20025;-85
2021/08/01 00:37:24;;;;;;;4.40;3.30;;;;;;;12.31;100.00;92541.56;2098536;28;20020;-87
2021/08/01 00:38:25;;;;;;;7.13;3.50;;;;;;;12.31;100.00;92543.50;2106519;28;20077;-85
2021/08/01 00:39:28;;;;;;;6.88;3.30;;;;;;;12.26;100.00;92544.06;2095554;28;20021;-85
2021/08/01 00:40:29;;;;;;;3.78;3.38;;;;;;;12.26;100.00;92544.81;2097226;28;20767;-86
2021/08/01 00:41:33;;;;;;;10.48;4.15;;;;;;;12.19;100.00;92550.44;2086751;28;20033;-86
2021/08/01 00:42:34;;;;;;;3.75;3.28;;;;;;;12.19;100.00;92550.44;2090684;28;20013;-85
2021/08/01 00:43:35;;;;;;;4.45;3.45;;;;;;;12.19;100.00;92545.06;2087143;28;20478;-86
2021/08/01 00:44:36;;;;;;;4.95;3.00;;;;;;;12.18;100.00;92546.25;2089836;28;20033;-86
2021/08/01 00:45:37;;;;;;;6.28;3.13;;;;;;;12.20;100.00;92549.22;2098941;28;20020;-84
2021/08/01 00:46:40;;;;;;;6.68;3.65;;;;;;;12.20;100.00;92543.13;2105376;28;20031;-85
2021/08/01 00:47:43;;;;;;;5.28;3.08;;;;;;;12.17;100.00;92544.78;2091627;28;20556;-85
2021/08/01 00:48:43;;;;;;;3.80;2.90;;;;;;;12.15;100.00;92544.44;2096645;28;20028;-86
2021/08/01 00:49:45;;;;;;;5.32;3.17;;;;;;;12.19;100.00;92544.31;2097371;28;20027;-86
2021/08/01 00:50:46;;;;;;;6.07;3.30;;;;;;;12.22;100.00;92546.88;2101597;28;20028;-84
2021/08/01 00:51:47;;;;;;;4.45;3.38;;;;;;;12.21;100.00;92550.75;2081592;28;20021;-84
2021/08/01 00:52:50;;;;;;;4.10;3.13;;;;;;;12.21;100.00;92550.00;2089054;28;20044;-86
2021/08/01 00:53:51;;;;;;;7.55;3.08;;;;;;;12.08;100.00;92555.44;2087240;28;20418;-85
2021/08/01 00:54:51;;;;;;;4.50;3.00;;;;;;;12.03;100.00;92554.09;2081783;28;20052;-85
2021/08/01 00:55:52;;;;;;;5.70;2.88;;;;;;;12.06;100.00;92553.19;2089685;28;20028;-84
2021/08/01 00:56:55;;;;;;;7.60;3.30;;;;;;;12.04;100.00;92552.88;2089636;28;20120;-84
2021/08/01 00:57:56;;;;;;;5.97;3.20;;;;;;;12.08;100.00;92558.13;2090048;28;20029;-84
2021/08/01 00:58:57;;;;;;;6.28;3.35;;;;;;;12.06;100.00;92555.13;2097954;28;20024;-85
2021/08/01 00:59:58;;;;;;;4.60;3.13;;;;;;;12.01;100.00;92561.03;2106440;28;20492;-86
2021/08/01 01:01:05;;;;;;;4.25;3.85;;;;;;;11.99;100.00;92566.09;2102189;28;20469;-85
2021/08/01 01:02:12;;;;;;;4.07;3.40;;;;;;;11.95;100.00;92555.50;2106435;28;20098;-85
2021/08/01 01:03:25;;;;;;;6.85;3.30;;;;;;;12.02;100.00;92559.84;2090588;28;20067;-83
2021/08/01 01:04:43;;;;;;;7.65;3.30;;;;;;;12.01;100.00;92561.78;2103382;28;20618;-84
2021/08/01 01:06:01;;;;;;;7.10;3.35;;;;;;;12.09;100.00;92563.03;2100030;28;20095;-85
2021/08/01 01:07:15;;;;;;;5.47;3.10;;;;;;;12.01;100.00;92561.03;2101800;28;20054;-82
2021/08/01 01:08:29;;;;;;;5.35;3.15;;;;;;;12.03;100.00;92562.13;2096292;28;20057;-85
2021/08/01 01:09:43;;;;;;;8.65;3.90;;;;;;;12.05;100.00;92557.06;2095472;28;20774;-85
2021/08/01 01:10:48;;;;;;;4.80;3.08;;;;;;;12.01;100.00;92556.44;2095966;28;20440;-85
2021/08/01 01:11:51;;;;;;;6.68;3.53;;;;;;;12.02;100.00;92554.50;2106326;28;20536;-86
2021/08/01 01:13:02;;;;;;;3.33;3.03;;;;;;;11.96;100.00;92550.91;2098000;28;20024;-83
2021/08/01 01:14:05;;;;;;;7.35;3.63;;;;;;;12.02;100.00;92549.88;2105659;28;20030;-86
2021/08/01 01:15:11;;;;;;;5.20;3.20;;;;;;;12.06;100.00;92549.75;2091785;28;20027;-86
2021/08/01 01:16:12;;;;;;;3.83;3.03;;;;;;;12.13;100.00;92543.41;2096437;28;20104;-85
2021/08/01 01:17:19;;;;;;;4.60;2.97;;;;;;;12.09;100.00;92544.28;2105457;28;20048;-86
2021/08/01 01:18:24;;;;;;;7.90;3.45;;;;;;;12.00;100.00;92538.13;2090579;28;20131;-87
2021/08/01 01:19:42;;;;;;;3.70;3.28;;;;;;;12.04;100.00;92534.13;2099219;28;20437;-85
2021/08/01 01:21:18;;;;;;;7.80;3.35;;;;;;;11.98;100.00;92525.16;2096201;28;20497;-86
2021/08/01 01:22:31;;;;;;;5.07;3.63;;;;;;;11.98;100.00;92525.16;2106773;28;20462;-84
2021/08/01 01:23:47;;;;;;;3.63;3.20;;;;;;;12.04;100.00;92525.34;2094605;28;20064;-86
2021/08/01 01:24:52;;;;;;;6.55;3.05;;;;;;;11.98;100.00;92524.41;2107531;27;20024;-87
2021/08/01 01:26:00;;;;;;;8.15;3.72;;;;;;;12.00;100.00;92528.16;2100943;28;20023;-87
2021/08/01 01:27:13;;;;;;;6.28;3.42;;;;;;;12.03;100.00;92524.63;2099316;28;20024;-85
2021/08/01 01:28:30;;;;;;;6.25;3.35;;;;;;;11.98;100.00;92525.16;2107896;28;20637;-87
2021/08/01 01:29:45;;;;;;;6.55;3.50;;;;;;;12.01;100.00;92518.94;2109614;28;20023;-85
2021/08/01 01:30:56;;;;;;;7.05;3.55;;;;;;;12.03;100.00;92523.88;2108816;28;20487;-85
2021/08/01 01:32:29;;;;;;;5.57;3.22;;;;;;;12.06;100.00;92523.72;2106254;28;20016;-84
2021/08/01 01:33:34;;;;;;;5.82;3.00;;;;;;;12.05;100.00;92516.13;2085159;28;20083;-85
2021/08/01 01:34:37;;;;;;;4.00;3.38;;;;;;;12.07;100.00;92513.75;2090598;28;20113;-85
2021/08/01 01:35:44;;;;;;;5.80;2.72;;;;;;;12.09;100.00;92520.16;2090131;28;20021;-87
2021/08/01 01:36:46;;;;;;;6.82;3.28;;;;;;;12.06;100.00;92517.63;2096781;28;20067;-84
2021/08/01 01:37:50;;;;;;;4.55;3.15;;;;;;;12.01;100.00;92510.91;2096974;28;20021;-85
2021/08/01 01:38:52;;;;;;;6.20;3.20;;;;;;;12.05;100.00;92513.44;2085658;28;20108;-86
2021/08/01 01:39:57;;;;;;;9.55;3.70;;;;;;;12.00;100.00;92514.78;2088814;28;20032;-85
2021/08/01 01:40:59;;;;;;;8.23;3.80;;;;;;;11.97;100.00;92509.53;2098194;28;20043;-87
2021/08/01 01:42:01;;;;;;;6.13;2.92;;;;;;;11.93;100.00;92515.03;2106867;28;20023;-85
2021/08/01 01:43:05;;;;;;;11.48;3.40;;;;;;;11.96;100.00;92513.41;2114205;28;20015;-86
2021/08/01 01:44:08;;;;;;;7.53;3.30;;;;;;;11.92;100.00;92513.53;2112725;28;20031;-85
2021/08/01 01:45:10;;;;;;;5.18;2.70;;;;;;;11.96;100.00;92513.41;2104998;28;20027;-86
2021/08/01 01:46:12;;;;;;;8.05;3.60;;;;;;;11.98;100.00;92511.78;2094095;28;20682;-87
2021/08/01 01:47:15;;;;;;;4.63;3.17;;;;;;;12.00;100.00;92514.78;2083696;28;20029;-84
2021/08/01 01:48:15;;;;;;;9.10;3.67;;;;;;;12.05;100.00;92505.41;2089955;28;20040;-85
2021/08/01 01:49:17;;;;;;;9.38;3.60;;;;;;;12.04;100.00;92517.31;2102690;28;20830;-86
2021/08/01 01:50:18;;;;;;;4.35;3.17;;;;;;;11.95;100.00;92507.31;2081824;28;20017;-84
2021/08/01 01:51:21;;;;;;;6.85;3.08;;;;;;;11.95;100.00;92506.56;2091669;28;20112;-85
2021/08/01 01:52:24;;;;;;;6.22;3.45;;;;;;;11.94;100.00;92515.75;2093816;28;20103;-87
2021/08/01 01:53:25;;;;;;;10.95;4.22;;;;;;;12.01;100.00;92515.50;2084599;28;20095;-85
2021/08/01 01:54:27;;;;;;;6.03;3.40;;;;;;;12.00;100.00;92517.44;2097601;28;20520;-87
2021/08/01 01:55:29;;;;;;;4.95;3.80;;;;;;;11.99;100.00;92509.84;2089905;28;20029;-86
2021/08/01 01:56:33;;;;;;;9.82;3.83;;;;;;;12.03;100.00;92513.91;2091878;28;20055;-84
2021/08/01 01:57:36;;;;;;;5.40;3.33;;;;;;;11.98;100.00;92517.13;2082920;28;20018;-86
2021/08/01 01:58:39;;;;;;;4.97;3.35;;;;;;;12.04;100.00;92518.06;2098215;28;20366;-85
2021/08/01 01:59:40;;;;;;;5.85;3.47;;;;;;;12.00;100.00;92509.41;2100343;28;20062;-84
2021/08/01 02:00:41;;;;;;;6.03;3.95;;;;;;;11.97;100.00;92512.97;2093205;28;20024;-85
2021/08/01 02:01:42;;;;;;;3.90;3.50;;;;;;;11.95;100.00;92496.59;2093751;28;20484;-85
2021/08/01 02:02:43;;;;;;;6.18;3.90;;;;;;;11.98;100.00;92511.03;2098830;28;20461;-86
2021/08/01 02:03:44;;;;;;;5.75;3.47;;;;;;;11.96;100.00;92508.78;2106056;28;20028;-85
2021/08/01 02:06:38;;;;;;;;;;;;;;;12.07;100.00;92509.16;2136842;27;20183;-84
2021/08/01 02:07:39;;;;;;;4.82;3.22;;;;;;;12.01;100.00;92504.78;2112954;28;19919;-85
2021/08/01 02:08:57;;;;;;;4.15;3.53;;;;;;;12.01;100.00;92508.22;2093753;28;20025;-86
2021/08/01 02:10:13;;;;;;;6.97;3.70;;;;;;;12.05;100.00;92508.84;2097826;28;20027;-84
2021/08/01 02:11:16;;;;;;;4.32;3.30;;;;;;;12.09;100.00;92508.72;2108896;28;20020;-86
2021/08/01 02:12:26;;;;;;;7.38;3.35;;;;;;;12.07;100.00;92506.47;2115167;28;20513;-84
2021/08/01 02:13:50;;;;;;;4.57;3.33;;;;;;;12.01;100.00;92512.84;2104340;28;20028;-85
2021/08/01 02:15:13;;;;;;;5.78;3.17;;;;;;;12.05;100.00;92508.09;2109772;28;20034;-85
2021/08/01 02:16:14;;;;;;;6.80;3.70;;;;;;;12.05;100.00;92510.78;2107124;28;20020;-84
2021/08/01 02:17:19;;;;;;;5.18;3.75;;;;;;;11.98;100.00;92509.09;2096416;28;20070;-86
2021/08/01 02:18:44;;;;;;;6.18;3.20;;;;;;;11.97;100.00;92504.94;2102788;28;20059;-85
2021/08/01 02:19:48;;;;;;;3.92;3.47;;;;;;;11.96;100.00;92503.44;2102911;28;20023;-85
2021/08/01 02:20:51;;;;;;;4.10;3.10;;;;;;;12.00;100.00;92504.06;2088535;28;20029;-86
2021/08/01 02:21:53;;;;;;;5.72;3.50;;;;;;;12.02;100.00;92500.94;2086149;28;20017;-85
2021/08/01 02:22:57;;;;;;;3.83;3.38;;;;;;;12.01;100.00;92500.19;2096196;28;20693;-86
2021/08/01 02:24:00;;;;;;;7.25;3.10;;;;;;;12.06;100.00;92499.59;2105135;28;20024;-86
2021/08/01 02:25:02;;;;;;;6.65;3.80;;;;;;;12.01;100.00;92494.09;2097555;28;20031;-86
2021/08/01 02:26:04;;;;;;;5.00;4.00;;;;;;;11.98;100.00;92494.97;2100278;28;20020;-85
2021/08/01 02:27:07;;;;;;;4.75;3.70;;;;;;;11.95;100.00;92503.88;2096773;28;20385;-84
2021/08/01 02:28:09;;;;;;;6.03;3.45;;;;;;;11.93;100.00;92498.94;2113175;28;20027;-86
2021/08/01 02:29:11;;;;;;;4.75;3.58;;;;;;;11.93;100.00;92500.88;2113468;28;20020;-85
2021/08/01 02:30:13;;;;;;;8.15;3.97;;;;;;;11.90;100.00;92499.84;2103554;28;20107;-84
2021/08/01 02:31:15;;;;;;;4.72;3.50;;;;;;;11.94;100.00;92511.19;2097779;28;20680;-85
2021/08/01 02:32:18;;;;;;;4.93;3.25;;;;;;;11.95;100.00;92514.59;2104753;28;20089;-83
2021/08/01 02:33:19;;;;;;;4.57;3.50;;;;;;;11.95;100.00;92507.31;2104683;28;20039;-86
2021/08/01 02:34:23;;;;;;;4.18;3.75;;;;;;;11.94;100.00;92513.09;2088186;28;20029;-85
2021/08/01 02:35:25;;;;;;;4.88;3.38;;;;;;;11.90;100.00;92504.47;2088905;28;20546;-85
2021/08/01 02:36:26;;;;;;;8.93;3.22;;;;;;;11.97;100.00;92509.53;2100493;28;20028;-84
2021/08/01 02:37:28;;;;;;;6.55;3.25;;;;;;;12.02;100.00;92501.66;2104985;28;20024;-85
2021/08/01 02:38:30;;;;;;;4.22;3.50;;;;;;;11.92;100.00;92502.81;2097628;28;20060;-85
2021/08/01 02:39:33;;;;;;;5.20;3.25;;;;;;;11.91;100.00;92505.94;2107354;28;20698;-86
2021/08/01 02:40:36;;;;;;;5.97;3.15;;;;;;;11.94;100.00;92508.50;2102371;28;20032;-86
2021/08/01 02:41:38;;;;;;;6.40;3.70;;;;;;;11.96;100.00;92506.13;2083673;28;20429;-84
2021/08/01 02:42:43;;;;;;;5.00;3.92;;;;;;;11.89;100.00;92508.31;2084823;28;20494;-84
2021/08/01 02:43:47;;;;;;;7.72;3.55;;;;;;;11.90;100.00;92515.91;2088817;28;20469;-85
2021/08/01 02:44:52;;;;;;;4.10;3.58;;;;;;;11.92;100.00;92507.44;2094478;28;20031;-86
2021/08/01 02:45:53;;;;;;;8.98;3.90;;;;;;;11.92;100.00;92507.44;2088848;28;20048;-86
2021/08/01 02:46:57;;;;;;;6.28;3.35;;;;;;;11.90;100.00;92509.81;2096463;28;20039;-87
2021/08/01 02:48:00;;;;;;;3.88;3.58;;;;;;;11.91;100.00;92512.03;2096489;28;20612;-86
2021/08/01 02:49:09;;;;;;;3.75;3.40;;;;;;;11.89;100.00;92514.41;2092677;28;20653;-86
2021/08/01 02:50:13;;;;;;;4.13;3.30;;;;;;;11.87;100.00;92508.75;2101397;28;20025;-86
2021/08/01 02:51:15;;;;;;;6.32;3.75;;;;;;;11.95;100.00;92509.97;2094114;28;20163;-84
2021/08/01 02:52:20;;;;;;;5.07;3.85;;;;;;;11.95;100.00;92501.94;2102959;28;20031;-87
2021/08/01 02:53:23;;;;;;;4.38;3.22;;;;;;;11.98;100.00;92511.78;2094198;28;20035;-84
2021/08/01 02:54:26;;;;;;;6.43;3.80;;;;;;;11.94;100.00;92515.75;2088493;28;20037;-84
2021/08/01 02:55:29;;;;;;;4.78;3.45;;;;;;;11.90;100.00;92515.19;2096590;28;20073;-85
2021/08/01 02:56:33;;;;;;;5.07;3.20;;;;;;;11.92;100.00;92510.84;2098116;28;20088;-84
2021/08/01 02:57:34;;;;;;;7.13;3.72;;;;;;;11.97;100.00;92509.53;2102292;28;20488;-85
2021/08/01 02:58:37;;;;;;;9.82;3.83;;;;;;;11.90;100.00;92520.53;2097560;28;20469;-84
2021/08/01 02:59:41;;;;;;;5.10;3.70;;;;;;;11.85;100.00;92516.47;2107225;28;20115;-86
2021/08/01 03:00:44;;;;;;;5.13;3.65;;;;;;;11.83;100.00;92516.16;2096791;28;20108;-85
2021/08/01 03:01:45;;;;;;;6.47;3.83;;;;;;;11.81;100.00;92513.16;2108901;28;20034;-84
2021/08/01 03:02:48;;;;;;;6.68;3.13;;;;;;;11.87;100.00;92521.41;2096088;28;20021;-84
2021/08/01 03:03:50;;;;;;;6.68;3.55;;;;;;;11.79;100.00;92510.16;2088039;28;20207;-84
2021/08/01 03:04:52;;;;;;;5.35;4.28;;;;;;;11.89;100.00;92524.38;2088750;28;20057;-85
2021/08/01 03:05:53;;;;;;;5.45;3.97;;;;;;;11.82;100.00;92514.66;2087883;28;20045;-85
2021/08/01 03:06:54;;;;;;;7.63;3.70;;;;;;;11.79;100.00;92510.91;2095857;28;20040;-86
2021/08/01 03:07:56;;;;;;;4.18;3.60;;;;;;;11.74;100.00;92519.50;2107902;28;20550;-87
2021/08/01 03:08:58;;;;;;;5.95;3.80;;;;;;;11.84;100.00;92517.66;2104690;28;20092;-84
2021/08/01 03:09:59;;;;;;;4.22;3.58;;;;;;;11.80;100.00;92517.75;2109694;28;20028;-85
2021/08/01 03:11:00;;;;;;;5.60;3.72;;;;;;;11.81;100.00;92516.59;2099464;28;20047;-87
2021/08/01 03:12:21;;;;;;;5.05;3.88;;;;;;;11.79;100.00;92526.97;2096013;28;20028;-84
2021/08/01 03:13:23;;;;;;;6.22;3.83;;;;;;;11.87;100.00;92518.72;2095413;28;20046;-84
2021/08/01 03:14:24;;;;;;;6.32;3.78;;;;;;;11.88;100.00;92515.59;2101723;28;20100;-83
2021/08/01 03:15:25;;;;;;;7.03;4.05;;;;;;;11.90;100.00;92515.91;2107131;28;20061;-86
2021/08/01 03:16:25;;;;;;;6.28;4.10;;;;;;;11.83;100.00;92521.53;2093210;28;20027;-84
2021/08/01 03:17:26;;;;;;;6.43;4.32;;;;;;;11.92;100.00;92521.56;2087368;28;20041;-86
2021/08/01 03:18:27;;;;;;;3.88;3.35;;;;;;;11.84;100.00;92521.06;2085732;28;20055;-86
2021/08/01 03:19:28;;;;;;;6.93;3.88;;;;;;;11.82;100.00;92515.41;2082262;28;20026;-85
2021/08/01 03:20:29;;;;;;;5.07;3.40;;;;;;;11.80;100.00;92517.00;2090425;28;20043;-85
2021/08/01 03:21:31;;;;;;;5.30;3.60;;;;;;;11.80;100.00;92528.47;2098879;28;20539;-86
2021/08/01 03:22:32;;;;;;;9.35;4.03;;;;;;;11.87;100.00;92516.78;2090694;28;20025;-85
2021/08/01 03:23:33;;;;;;;4.97;3.88;;;;;;;11.78;100.00;92530.09;2090265;28;20037;-85
2021/08/01 03:24:34;;;;;;;6.85;3.80;;;;;;;11.79;100.00;92532.31;2082299;28;20029;-85
2021/08/01 03:25:35;;;;;;;3.83;3.50;;;;;;;11.82;100.00;92531.50;2082148;28;20029;-85
2021/08/01 03:26:36;;;;;;;4.53;3.38;;;;;;;11.75;100.00;92533.63;2082434;28;20442;-83
2021/08/01 03:27:37;;;;;;;5.75;3.60;;;;;;;11.79;100.00;92531.59;2082382;28;20029;-86
2021/08/01 03:28:38;;;;;;;4.82;3.47;;;;;;;11.81;100.00;92521.19;2090349;28;20051;-85
2021/08/01 03:29:39;;;;;;;6.05;3.92;;;;;;;11.70;100.00;92526.91;2092563;28;20025;-85
2021/08/01 03:30:39;;;;;;;5.38;3.50;;;;;;;11.75;100.00;92520.25;2095696;28;20501;-85
2021/08/01 03:31:40;;;;;;;4.93;3.38;;;;;;;11.82;100.00;92522.69;2102383;28;20702;-86
2021/08/01 03:32:42;;;;;;;4.32;3.30;;;;;;;11.76;100.00;92527.84;2083259;28;20025;-85
2021/08/01 03:33:42;;;;;;;4.68;3.33;;;;;;;11.83;100.00;92518.84;2094791;28;20493;-85
2021/08/01 03:34:43;;;;;;;5.13;3.20;;;;;;;11.77;100.00;92520.56;2101933;28;20028;-85
2021/08/01 03:35:44;;;;;;;4.25;3.15;;;;;;;11.75;100.00;92520.25;2106864;28;20119;-84
2021/08/01 03:36:45;;;;;;;3.80;3.40;;;;;;;11.77;100.00;92520.56;2096240;28;20020;-85
2021/08/01 03:37:46;;;;;;;3.80;3.50;;;;;;;11.71;100.00;92530.34;2090538;28;20089;-84
2021/08/01 03:38:47;;;;;;;3.67;3.30;;;;;;;11.66;100.00;92538.94;2094351;28;20036;-86
2021/08/01 03:39:48;;;;;;;5.90;3.38;;;;;;;11.66;100.00;92533.59;2098056;28;20074;-85
2021/08/01 03:40:50;;;;;;;5.15;3.30;;;;;;;11.63;100.00;92534.44;2088383;28;20017;-85
2021/08/01 03:41:51;;;;;;;9.45;3.88;;;;;;;11.67;100.00;92529.72;2089986;28;20036;-86
2021/08/01 03:42:53;;;;;;;4.80;3.00;;;;;;;11.65;100.00;92534.78;2096311;28;20373;-85
2021/08/01 03:43:54;;;;;;;5.82;3.25;;;;;;;11.60;100.00;92533.41;2090391;28;20029;-86
2021/08/01 03:44:54;;;;;;;4.43;3.38;;;;;;;11.61;100.00;92537.56;2090443;28;20071;-85
2021/08/01 03:45:55;;;;;;;3.33;2.78;;;;;;;11.64;100.00;92531.34;2094269;28;20600;-86
2021/08/01 03:46:56;;;;;;;4.40;2.80;;;;;;;11.68;100.00;92528.56;2096073;28;20032;-84
2021/08/01 03:47:57;;;;;;;6.13;3.08;;;;;;;11.65;100.00;92527.47;2081919;28;20029;-83
2021/08/01 03:48:58;;;;;;;3.45;3.15;;;;;;;11.74;100.00;92529.47;2088346;28;20032;-87
2021/08/01 03:49:59;;;;;;;5.32;3.45;;;;;;;11.62;100.00;92530.28;2082047;28;20059;-87
2021/08/01 03:51:00;;;;;;;8.35;3.20;;;;;;;11.66;100.00;92528.22;2073800;28;20022;-85
2021/08/01 03:52:01;;;;;;;4.28;3.00;;;;;;;11.60;100.00;92531.47;2073932;28;20076;-87
2021/08/01 03:53:02;;;;;;;5.78;3.65;;;;;;;11.65;100.00;92524.06;2083206;28;20022;-83
2021/08/01 03:54:03;;;;;;;3.72;3.22;;;;;;;11.66;100.00;92531.66;2089120;28;20021;-86
2021/08/01 03:55:04;;;;;;;4.93;3.35;;;;;;;11.55;100.00;92536.66;2098377;28;20445;-85
2021/08/01 03:56:05;;;;;;;8.52;3.35;;;;;;;11.58;100.00;92536.50;2073933;28;20022;-84
2021/08/01 03:57:06;;;;;;;4.65;3.33;;;;;;;11.61;100.00;92537.56;2090130;28;20079;-87
2021/08/01 03:58:07;;;;;;;7.70;3.40;;;;;;;11.67;100.00;92535.06;2098354;28;20028;-86
2021/08/01 03:59:08;;;;;;;8.93;3.55;;;;;;;11.66;100.00;92530.91;2092970;28;20025;-86
2021/08/01 04:00:10;;;;;;;14.63;3.75;;;;;;;11.62;100.00;92532.97;2098494;28;20385;-86
2021/08/01 04:01:14;;;;;;;5.68;3.30;;;;;;;11.70;100.00;92526.16;2098638;28;20127;-84
2021/08/01 04:02:15;;;;;;;4.72;3.17;;;;;;;11.62;100.00;92532.97;2092490;28;20028;-85
2021/08/01 04:03:16;;;;;;;6.25;3.22;;;;;;;11.65;100.00;92532.84;2098312;28;20040;-86
2021/08/01 04:04:17;;;;;;;6.47;4.25;;;;;;;11.56;100.00;92533.53;2098725;28;20024;-87
2021/08/01 04:05:18;;;;;;;3.65;3.35;;;;;;;11.53;100.00;92522.94;2081889;28;20607;-84
2021/08/01 04:06:19;;;;;;;5.70;3.13;;;;;;;11.53;100.00;92526.34;2090860;28;20105;-84
2021/08/01 04:07:19;;;;;;;9.45;3.33;;;;;;;11.57;100.00;92528.91;2100915;28;20051;-85
2021/08/01 04:08:20;;;;;;;11.13;3.75;;;;;;;11.59;100.00;92529.97;2089934;28;20032;-84
2021/08/01 04:09:22;;;;;;;4.72;3.47;;;;;;;11.60;100.00;92528.78;2095759;28;20020;-86
2021/08/01 04:10:22;;;;;;;5.68;3.20;;;;;;;11.51;100.00;92533.34;2082126;28;20018;-86
2021/08/01 04:11:23;;;;;;;5.93;3.28;;;;;;;11.50;100.00;92532.59;2081892;28;20017;-86
2021/08/01 04:12:25;;;;;;;6.28;3.40;;;;;;;11.54;100.00;92517.13;2085626;28;20474;-85
2021/08/01 04:13:25;;;;;;;7.13;3.55;;;;;;;11.57;100.00;92520.88;2081872;28;20021;-83
2021/08/01 04:14:31;;;;;;;3.25;2.92;;;;;;;11.52;100.00;92524.88;2085018;28;20024;-84
2021/08/01 04:15:32;;;;;;;5.35;3.70;;;;;;;11.56;100.00;92525.50;2096957;28;20501;-84
2021/08/01 04:16:35;;;;;;;7.28;3.50;;;;;;;11.58;100.00;92523.13;2090295;28;20302;-84
2021/08/01 04:17:36;;;;;;;8.02;3.25;;;;;;;11.48;100.00;92524.25;2093308;28;20028;-85
2021/08/01 04:18:37;;;;;;;7.63;3.40;;;;;;;11.54;100.00;92519.81;2098365;28;20398;-87
2021/08/01 04:19:38;;;;;;;11.13;3.92;;;;;;;11.57;100.00;92529.66;2089662;28;20613;-85
2021/08/01 04:20:39;;;;;;;3.80;3.13;;;;;;;11.63;100.00;92527.16;2081070;28;20558;-87
2021/08/01 04:21:41;;;;;;;6.43;3.53;;;;;;;11.63;100.00;92526.41;2087003;28;20083;-83
2021/08/01 04:22:42;;;;;;;4.38;3.03;;;;;;;11.51;100.00;92520.69;2102384;28;20021;-87
2021/08/01 04:23:43;;;;;;;4.93;3.53;;;;;;;11.53;100.00;92515.66;2098040;28;20031;-86
2021/08/01 04:24:44;;;;;;;4.30;3.53;;;;;;;11.55;100.00;92521.31;2085815;28;20026;-84
2021/08/01 04:25:45;;;;;;;5.43;3.58;;;;;;;11.58;100.00;92515.09;2073452;28;20092;-87
2021/08/01 04:26:46;;;;;;;4.95;3.28;;;;;;;11.52;100.00;92508.81;2089985;28;20806;-85
2021/08/01 04:27:48;;;;;;;3.60;3.30;;;;;;;11.50;100.00;92513.09;2096600;28;20056;-86
2021/08/01 04:28:49;;;;;;;5.22;3.70;;;;;;;11.53;100.00;92510.28;2081799;28;20234;-84
2021/08/01 04:29:50;;;;;;;9.13;4.00;;;;;;;11.57;100.00;92513.59;2080720;28;20025;-85
2021/08/01 04:30:50;;;;;;;6.30;3.72;;;;;;;11.60;100.00;92501.28;2084940;28;20025;-83
2021/08/01 04:31:51;;;;;;;5.88;3.58;;;;;;;11.56;100.00;92509.44;2078227;28;20057;-83
2021/08/01 04:32:52;;;;;;;7.13;3.92;;;;;;;11.55;100.00;92518.66;2088738;28;20021;-85
2021/08/01 04:33:53;;;;;;;9.25;3.65;;;;;;;11.57;100.00;92510.19;2092770;28;20551;-85
2021/08/01 04:34:54;;;;;;;4.28;3.63;;;;;;;11.51;100.00;92511.94;2096359;28;20020;-85
2021/08/01 04:35:55;;;;;;;5.45;3.33;;;;;;;11.54;100.00;92511.78;2086950;28;20163;-84
2021/08/01 04:36:56;;;;;;;3.90;3.53;;;;;;;11.48;100.00;92508.19;2079570;28;20029;-84
2021/08/01 04:38:01;;;;;;;7.03;3.58;;;;;;;11.52;100.00;92508.81;2081609;28;20017;-83
2021/08/01 04:39:02;;;;;;;5.55;3.38;;;;;;;11.57;100.00;92513.59;2082452;28;20021;-85
2021/08/01 04:40:05;;;;;;;7.25;3.95;;;;;;;11.55;100.00;92504.53;2089675;28;20067;-86
2021/08/01 04:41:06;;;;;;;6.28;3.60;;;;;;;11.56;100.00;92514.78;2092839;28;20040;-85
2021/08/01 04:42:06;;;;;;;3.75;3.42;;;;;;;11.51;100.00;92509.25;2086807;28;20037;-85
2021/08/01 04:43:07;;;;;;;4.35;3.90;;;;;;;11.52;100.00;92516.84;2097988;28;20020;-86
2021/08/01 04:44:08;;;;;;;5.53;3.80;;;;;;;11.43;100.00;92514.09;2088613;28;20075;-85
2021/08/01 04:45:10;;;;;;;6.05;3.40;;;;;;;11.48;100.00;92516.22;2081684;28;20032;-84
2021/08/01 04:46:11;;;;;;;5.45;4.35;;;;;;;11.54;100.00;92513.72;2089145;28;20024;-84
2021/08/01 04:47:13;;;;;;;8.23;3.83;;;;;;;11.51;100.00;92518.03;2089898;28;20108;-84
2021/08/01 04:48:14;;;;;;;5.97;3.92;;;;;;;11.54;100.00;92519.06;2100937;28;20098;-86
2021/08/01 04:49:14;;;;;;;5.30;3.75;;;;;;;11.58;100.00;92517.00;2095654;28;20033;-85
2021/08/01 04:50:15;;;;;;;5.03;3.78;;;;;;;11.55;100.00;92510.63;2106273;28;20032;-85
2021/08/01 04:51:17;;;;;;;5.00;4.10;;;;;;;11.56;100.00;92514.78;2081661;28;20026;-84
2021/08/01 04:52:19;;;;;;;6.40;3.50;;;;;;;11.57;100.00;92508.25;2089660;28;20063;-86
2021/08/01 04:53:20;;;;;;;8.05;4.70;;;;;;;11.60;100.00;92514.66;2088990;28;20052;-85
2021/08/01 04:54:20;;;;;;;6.38;3.78;;;;;;;11.54;100.00;92508.34;2088219;28;20075;-84
2021/08/01 04:55:22;;;;;;;4.65;4.13;;;;;;;11.56;100.00;92509.44;2104659;28;20035;-85